1412 UTC 01 October 2014 found at http://aviationweather.gov/adds/metars/
 
METAR text: KMNH 011353Z AUTO 20006KT 10SM CLR 05/00 A2997 RMK AO2
Conditions at: KMNH (MONUMENT/ELBERT , CO, US) observed 1353 UTC 01 October 2014
Temperature: 5.0°C (41°F)
Dewpoint: 0.0°C (32°F) [RH = 70%]
Pressure (altimeter): 29.97 inches Hg (1015.0 mb)
Winds: from the SSW (200 degrees) at 7 MPH (6 knots; 3.1 m/s)
Visibility: 10 or more miles (16+ km)
Ceiling: at least 12,000 feet AGL
Clouds: sky clear below 12,000 feet AGL
Weather: automated observation with no human augmentation;
there may or may not be significant weather present at this time

METAR text: KMNH 011332Z AUTO 22005KT 10SM CLR 05/00 A2997 RMK AO2
Conditions at: KMNH (MONUMENT/ELBERT , CO, US) observed 1332 UTC 01 October 2014
Temperature: 5.0°C (41°F)
Dewpoint: 0.0°C (32°F) [RH = 70%]
Pressure (altimeter): 29.97 inches Hg (1015.0 mb)
Winds: from the SW (220 degrees) at 6 MPH (5 knots; 2.6 m/s)
Visibility: 10 or more miles (16+ km)
Ceiling: at least 12,000 feet AGL
Clouds: sky clear below 12,000 feet AGL
Weather: automated observation with no human augmentation;
there may or may not be significant weather present at this time

METAR text: KMNH 011312Z AUTO 21005KT 10SM CLR 04/M01 A2996 RMK AO2
Conditions at: KMNH (MONUMENT/ELBERT , CO, US) observed 1312 UTC 01 October 2014
Temperature: 4.0°C (39°F)
Dewpoint: -1.0°C (30°F) [RH = 70%]
Pressure (altimeter): 29.96 inches Hg (1014.6 mb)
Winds: from the SSW (210 degrees) at 6 MPH (5 knots; 2.6 m/s)
Visibility: 10 or more miles (16+ km)
Ceiling: at least 12,000 feet AGL
Clouds: sky clear below 12,000 feet AGL
Weather: automated observation with no human augmentation;
there may or may not be significant weather present at this time

METAR text: KMNH 011252Z AUTO 20006KT 10SM CLR 02/M01 A2995 RMK AO2
Conditions at: KMNH (MONUMENT/ELBERT , CO, US) observed 1252 UTC 01 October 2014
Temperature: 2.0°C (36°F)
Dewpoint: -1.0°C (30°F) [RH = 80%]
Pressure (altimeter): 29.95 inches Hg (1014.3 mb)
Winds: from the SSW (200 degrees) at 7 MPH (6 knots; 3.1 m/s)
Visibility: 10 or more miles (16+ km)
Ceiling: at least 12,000 feet AGL
Clouds: sky clear below 12,000 feet AGL
Weather: automated observation with no human augmentation;
there may or may not be significant weather present at this time

METAR text: KMNH 011231Z AUTO 17003KT 10SM CLR 02/M01 A2995 RMK AO2
Conditions at: KMNH (MONUMENT/ELBERT , CO, US) observed 1231 UTC 01 October 2014
Temperature: 2.0°C (36°F)
Dewpoint: -1.0°C (30°F) [RH = 80%]
Pressure (altimeter): 29.95 inches Hg (1014.3 mb)
Winds: from the S (170 degrees) at 3 MPH (3 knots; 1.6 m/s)
Visibility: 10 or more miles (16+ km)
Ceiling: at least 12,000 feet AGL
Clouds: sky clear below 12,000 feet AGL
Weather: automated observation with no human augmentation;
there may or may not be significant weather present at this time

METAR text: KMNH 011212Z AUTO 18004KT 10SM CLR 02/M01 A2995 RMK AO2
Conditions at: KMNH (MONUMENT/ELBERT , CO, US) observed 1212 UTC 01 October 2014
Temperature: 2.0°C (36°F)
Dewpoint: -1.0°C (30°F) [RH = 80%]
Pressure (altimeter): 29.95 inches Hg (1014.3 mb)
Winds: from the S (180 degrees) at 5 MPH (4 knots; 2.1 m/s)
Visibility: 10 or more miles (16+ km)
Ceiling: at least 12,000 feet AGL
Clouds: sky clear below 12,000 feet AGL
Weather: automated observation with no human augmentation;
there may or may not be significant weather present at this time

METAR text: KMNH 011153Z AUTO 17004KT 10SM CLR 02/M01 A2994 RMK AO2 LTG DSNT W
Conditions at: KMNH (MONUMENT/ELBERT , CO, US) observed 1153 UTC 01 October 2014
Temperature: 2.0°C (36°F)
Dewpoint: -1.0°C (30°F) [RH = 80%]
Pressure (altimeter): 29.94 inches Hg (1014.0 mb)
Winds: from the S (170 degrees) at 5 MPH (4 knots; 2.1 m/s)
Visibility: 10 or more miles (16+ km)
Ceiling: at least 12,000 feet AGL
Clouds: sky clear below 12,000 feet AGL
Weather: automated observation with no human augmentation;
there may or may not be significant weather present at this time

METAR text: KMNH 011133Z AUTO 21004KT 10SM CLR 03/M01 A2994 RMK AO2
Conditions at: KMNH (MONUMENT/ELBERT , CO, US) observed 1133 UTC 01 October 2014
Temperature: 3.0°C (37°F)
Dewpoint: -1.0°C (30°F) [RH = 75%]
Pressure (altimeter): 29.94 inches Hg (1014.0 mb)
Winds: from the SSW (210 degrees) at 5 MPH (4 knots; 2.1 m/s)
Visibility: 10 or more miles (16+ km)
Ceiling: at least 12,000 feet AGL
Clouds: sky clear below 12,000 feet AGL
Weather: automated observation with no human augmentation;
there may or may not be significant weather present at this time

METAR text: KMNH 011113Z AUTO 18005KT 10SM CLR 02/00 A2994 RMK AO2
Conditions at: KMNH (MONUMENT/ELBERT , CO, US) observed 1113 UTC 01 October 2014
Temperature: 2.0°C (36°F)
Dewpoint: 0.0°C (32°F) [RH = 87%]
Pressure (altimeter): 29.94 inches Hg (1014.0 mb)
Winds: from the S (180 degrees) at 6 MPH (5 knots; 2.6 m/s)
Visibility: 10 or more miles (16+ km)
Ceiling: at least 12,000 feet AGL
Clouds: sky clear below 12,000 feet AGL
Weather: automated observation with no human augmentation;
there may or may not be significant weather present at this time

METAR text: KMNH 011053Z AUTO 21006KT 10SM CLR 02/M01 A2994 RMK AO2
Conditions at: KMNH (MONUMENT/ELBERT , CO, US) observed 1053 UTC 01 October 2014
Temperature: 2.0°C (36°F)
Dewpoint: -1.0°C (30°F) [RH = 80%]
Pressure (altimeter): 29.94 inches Hg (1014.0 mb)
Winds: from the SSW (210 degrees) at 7 MPH (6 knots; 3.1 m/s)
Visibility: 10 or more miles (16+ km)
Ceiling: at least 12,000 feet AGL
Clouds: sky clear below 12,000 feet AGL
Weather: automated observation with no human augmentation;
there may or may not be significant weather present at this time

METAR text: KMNH 011033Z AUTO 20006KT 10SM CLR 05/M01 A2994 RMK AO2
Conditions at: KMNH (MONUMENT/ELBERT , CO, US) observed 1033 UTC 01 October 2014
Temperature: 5.0°C (41°F)
Dewpoint: -1.0°C (30°F) [RH = 65%]
Pressure (altimeter): 29.94 inches Hg (1014.0 mb)
Winds: from the SSW (200 degrees) at 7 MPH (6 knots; 3.1 m/s)
Visibility: 10 or more miles (16+ km)
Ceiling: at least 12,000 feet AGL
Clouds: sky clear below 12,000 feet AGL
Weather: automated observation with no human augmentation;
there may or may not be significant weather present at this time

METAR text: KMNH 011013Z AUTO 20004KT 10SM CLR 02/M01 A2993 RMK AO2
Conditions at: KMNH (MONUMENT/ELBERT , CO, US) observed 1013 UTC 01 October 2014
Temperature: 2.0°C (36°F)
Dewpoint: -1.0°C (30°F) [RH = 80%]
Pressure (altimeter): 29.93 inches Hg (1013.6 mb)
Winds: from the SSW (200 degrees) at 5 MPH (4 knots; 2.1 m/s)
Visibility: 10 or more miles (16+ km)
Ceiling: at least 12,000 feet AGL
Clouds: sky clear below 12,000 feet AGL
Weather: automated observation with no human augmentation;
there may or may not be significant weather present at this time

METAR text: KMNH 010953Z AUTO 16004KT 10SM CLR 02/M01 A2993 RMK AO2
Conditions at: KMNH (MONUMENT/ELBERT , CO, US) observed 0953 UTC 01 October 2014
Temperature: 2.0°C (36°F)
Dewpoint: -1.0°C (30°F) [RH = 80%]
Pressure (altimeter): 29.93 inches Hg (1013.6 mb)
Winds: from the SSE (160 degrees) at 5 MPH (4 knots; 2.1 m/s)
Visibility: 10 or more miles (16+ km)
Ceiling: at least 12,000 feet AGL
Clouds: sky clear below 12,000 feet AGL
Weather: automated observation with no human augmentation;
there may or may not be significant weather present at this time

METAR text: KMNH 010933Z AUTO 19003KT 10SM CLR 03/M01 A2993 RMK AO2
Conditions at: KMNH (MONUMENT/ELBERT , CO, US) observed 0933 UTC 01 October 2014
Temperature: 3.0°C (37°F)
Dewpoint: -1.0°C (30°F) [RH = 75%]
Pressure (altimeter): 29.93 inches Hg (1013.6 mb)
Winds: from the S (190 degrees) at 3 MPH (3 knots; 1.6 m/s)
Visibility: 10 or more miles (16+ km)
Ceiling: at least 12,000 feet AGL
Clouds: sky clear below 12,000 feet AGL
Weather: automated observation with no human augmentation;
there may or may not be significant weather present at this time

METAR text: KMNH 010913Z AUTO 21004KT 10SM CLR 03/M01 A2994 RMK AO2
Conditions at: KMNH (MONUMENT/ELBERT , CO, US) observed 0913 UTC 01 October 2014
Temperature: 3.0°C (37°F)
Dewpoint: -1.0°C (30°F) [RH = 75%]
Pressure (altimeter): 29.94 inches Hg (1014.0 mb)
Winds: from the SSW (210 degrees) at 5 MPH (4 knots; 2.1 m/s)
Visibility: 10 or more miles (16+ km)
Ceiling: at least 12,000 feet AGL
Clouds: sky clear below 12,000 feet AGL
Weather: automated observation with no human augmentation;
there may or may not be significant weather present at this time

METAR text: KMNH 010851Z AUTO 25006KT 10SM CLR 05/M01 A2994 RMK AO2
Conditions at: KMNH (MONUMENT/ELBERT , CO, US) observed 0851 UTC 01 October 2014
Temperature: 5.0°C (41°F)
Dewpoint: -1.0°C (30°F) [RH = 65%]
Pressure (altimeter): 29.94 inches Hg (1014.0 mb)
Winds: from the WSW (250 degrees) at 7 MPH (6 knots; 3.1 m/s)
Visibility: 10 or more miles (16+ km)
Ceiling: at least 12,000 feet AGL
Clouds: sky clear below 12,000 feet AGL
Weather: automated observation with no human augmentation;
there may or may not be significant weather present at this time

METAR text: KMNH 010833Z AUTO 23006KT 10SM CLR 06/M01 A2995 RMK AO2
Conditions at: KMNH (MONUMENT/ELBERT , CO, US) observed 0833 UTC 01 October 2014
Temperature: 6.0°C (43°F)
Dewpoint: -1.0°C (30°F) [RH = 61%]
Pressure (altimeter): 29.95 inches Hg (1014.3 mb)
Winds: from the SW (230 degrees) at 7 MPH (6 knots; 3.1 m/s)
Visibility: 10 or more miles (16+ km)
Ceiling: at least 12,000 feet AGL
Clouds: sky clear below 12,000 feet AGL
Weather: automated observation with no human augmentation;
there may or may not be significant weather present at this time

METAR text: KMNH 010813Z AUTO 20005KT 10SM CLR 04/M01 A2995 RMK AO2
Conditions at: KMNH (MONUMENT/ELBERT , CO, US) observed 0813 UTC 01 October 2014
Temperature: 4.0°C (39°F)
Dewpoint: -1.0°C (30°F) [RH = 70%]
Pressure (altimeter): 29.95 inches Hg (1014.3 mb)
Winds: from the SSW (200 degrees) at 6 MPH (5 knots; 2.6 m/s)
Visibility: 10 or more miles (16+ km)
Ceiling: at least 12,000 feet AGL
Clouds: sky clear below 12,000 feet AGL
Weather: automated observation with no human augmentation;
there may or may not be significant weather present at this time

METAR text: KMNH 010753Z AUTO 24006KT 10SM CLR 05/M01 A2995 RMK AO2
Conditions at: KMNH (MONUMENT/ELBERT , CO, US) observed 0753 UTC 01 October 2014
Temperature: 5.0°C (41°F)
Dewpoint: -1.0°C (30°F) [RH = 65%]
Pressure (altimeter): 29.95 inches Hg (1014.3 mb)
Winds: from the WSW (240 degrees) at 7 MPH (6 knots; 3.1 m/s)
Visibility: 10 or more miles (16+ km)
Ceiling: at least 12,000 feet AGL
Clouds: sky clear below 12,000 feet AGL
Weather: automated observation with no human augmentation;
there may or may not be significant weather present at this time

METAR text: KMNH 010732Z AUTO 24006KT 10SM CLR 04/00 A2995 RMK AO2
Conditions at: KMNH (MONUMENT/ELBERT , CO, US) observed 0732 UTC 01 October 2014
Temperature: 4.0°C (39°F)
Dewpoint: 0.0°C (32°F) [RH = 75%]
Pressure (altimeter): 29.95 inches Hg (1014.3 mb)
Winds: from the WSW (240 degrees) at 7 MPH (6 knots; 3.1 m/s)
Visibility: 10 or more miles (16+ km)
Ceiling: at least 12,000 feet AGL
Clouds: sky clear below 12,000 feet AGL
Weather: automated observation with no human augmentation;
there may or may not be significant weather present at this time

METAR text: KMNH 010713Z AUTO 24006KT 10SM CLR 05/00 A2995 RMK AO2
Conditions at: KMNH (MONUMENT/ELBERT , CO, US) observed 0713 UTC 01 October 2014
Temperature: 5.0°C (41°F)
Dewpoint: 0.0°C (32°F) [RH = 70%]
Pressure (altimeter): 29.95 inches Hg (1014.3 mb)
Winds: from the WSW (240 degrees) at 7 MPH (6 knots; 3.1 m/s)
Visibility: 10 or more miles (16+ km)
Ceiling: at least 12,000 feet AGL
Clouds: sky clear below 12,000 feet AGL
Weather: automated observation with no human augmentation;
there may or may not be significant weather present at this time

METAR text: KMNH 010653Z AUTO 24008KT 10SM CLR 05/00 A2995 RMK AO2
Conditions at: KMNH (MONUMENT/ELBERT , CO, US) observed 0653 UTC 01 October 2014
Temperature: 5.0°C (41°F)
Dewpoint: 0.0°C (32°F) [RH = 70%]
Pressure (altimeter): 29.95 inches Hg (1014.3 mb)
Winds: from the WSW (240 degrees) at 9 MPH (8 knots; 4.2 m/s)
Visibility: 10 or more miles (16+ km)
Ceiling: at least 12,000 feet AGL
Clouds: sky clear below 12,000 feet AGL
Weather: automated observation with no human augmentation;
there may or may not be significant weather present at this time

METAR text: KMNH 010633Z AUTO 22005KT 10SM CLR 07/M01 A2995 RMK AO2
Conditions at: KMNH (MONUMENT/ELBERT , CO, US) observed 0633 UTC 01 October 2014
Temperature: 7.0°C (45°F)
Dewpoint: -1.0°C (30°F) [RH = 57%]
Pressure (altimeter): 29.95 inches Hg (1014.3 mb)
Winds: from the SW (220 degrees) at 6 MPH (5 knots; 2.6 m/s)
Visibility: 10 or more miles (16+ km)
Ceiling: at least 12,000 feet AGL
Clouds: sky clear below 12,000 feet AGL
Weather: automated observation with no human augmentation;
there may or may not be significant weather present at this time

METAR text: KMNH 010613Z AUTO 24005KT 10SM CLR 05/00 A2995 RMK AO2
Conditions at: KMNH (MONUMENT/ELBERT , CO, US) observed 0613 UTC 01 October 2014
Temperature: 5.0°C (41°F)
Dewpoint: 0.0°C (32°F) [RH = 70%]
Pressure (altimeter): 29.95 inches Hg (1014.3 mb)
Winds: from the WSW (240 degrees) at 6 MPH (5 knots; 2.6 m/s)
Visibility: 10 or more miles (16+ km)
Ceiling: at least 12,000 feet AGL
Clouds: sky clear below 12,000 feet AGL
Weather: automated observation with no human augmentation;
there may or may not be significant weather present at this time

METAR text: KMNH 010552Z AUTO 24005KT 10SM CLR 06/00 A2995 RMK AO2
Conditions at: KMNH (MONUMENT/ELBERT , CO, US) observed 0552 UTC 01 October 2014
Temperature: 6.0°C (43°F)
Dewpoint: 0.0°C (32°F) [RH = 65%]
Pressure (altimeter): 29.95 inches Hg (1014.3 mb)
Winds: from the WSW (240 degrees) at 6 MPH (5 knots; 2.6 m/s)
Visibility: 10 or more miles (16+ km)
Ceiling: at least 12,000 feet AGL
Clouds: sky clear below 12,000 feet AGL
Weather: automated observation with no human augmentation;
there may or may not be significant weather present at this time

METAR text: KMNH 010532Z AUTO 26006KT 10SM CLR 05/00 A2995 RMK AO2
Conditions at: KMNH (MONUMENT/ELBERT , CO, US) observed 0532 UTC 01 October 2014
Temperature: 5.0°C (41°F)
Dewpoint: 0.0°C (32°F) [RH = 70%]
Pressure (altimeter): 29.95 inches Hg (1014.3 mb)
Winds: from the W (260 degrees) at 7 MPH (6 knots; 3.1 m/s)
Visibility: 10 or more miles (16+ km)
Ceiling: at least 12,000 feet AGL
Clouds: sky clear below 12,000 feet AGL
Weather: automated observation with no human augmentation;
there may or may not be significant weather present at this time

METAR text: KMNH 010512Z AUTO 23006KT 10SM CLR 06/00 A2995 RMK AO2
Conditions at: KMNH (MONUMENT/ELBERT , CO, US) observed 0512 UTC 01 October 2014
Temperature: 6.0°C (43°F)
Dewpoint: 0.0°C (32°F) [RH = 65%]
Pressure (altimeter): 29.95 inches Hg (1014.3 mb)
Winds: from the SW (230 degrees) at 7 MPH (6 knots; 3.1 m/s)
Visibility: 10 or more miles (16+ km)
Ceiling: at least 12,000 feet AGL
Clouds: sky clear below 12,000 feet AGL
Weather: automated observation with no human augmentation;
there may or may not be significant weather present at this time

METAR text: KMNH 010452Z AUTO 25005KT 10SM CLR 05/01 A2995 RMK AO2
Conditions at: KMNH (MONUMENT/ELBERT , CO, US) observed 0452 UTC 01 October 2014
Temperature: 5.0°C (41°F)
Dewpoint: 1.0°C (34°F) [RH = 75%]
Pressure (altimeter): 29.95 inches Hg (1014.3 mb)
Winds: from the WSW (250 degrees) at 6 MPH (5 knots; 2.6 m/s)
Visibility: 10 or more miles (16+ km)
Ceiling: at least 12,000 feet AGL
Clouds: sky clear below 12,000 feet AGL
Weather: automated observation with no human augmentation;
there may or may not be significant weather present at this time

METAR text: KMNH 010432Z AUTO 24006KT 10SM CLR 07/00 A2995 RMK AO2
Conditions at: KMNH (MONUMENT/ELBERT , CO, US) observed 0432 UTC 01 October 2014
Temperature: 7.0°C (45°F)
Dewpoint: 0.0°C (32°F) [RH = 61%]
Pressure (altimeter): 29.95 inches Hg (1014.3 mb)
Winds: from the WSW (240 degrees) at 7 MPH (6 knots; 3.1 m/s)
Visibility: 10 or more miles (16+ km)
Ceiling: at least 12,000 feet AGL
Clouds: sky clear below 12,000 feet AGL
Weather: automated observation with no human augmentation;
there may or may not be significant weather present at this time

METAR text: KMNH 010412Z AUTO 23004KT 10SM CLR 07/01 A2995 RMK AO2
Conditions at: KMNH (MONUMENT/ELBERT , CO, US) observed 0412 UTC 01 October 2014
Temperature: 7.0°C (45°F)
Dewpoint: 1.0°C (34°F) [RH = 66%]
Pressure (altimeter): 29.95 inches Hg (1014.3 mb)
Winds: from the SW (230 degrees) at 5 MPH (4 knots; 2.1 m/s)
Visibility: 10 or more miles (16+ km)
Ceiling: at least 12,000 feet AGL
Clouds: sky clear below 12,000 feet AGL
Weather: automated observation with no human augmentation;
there may or may not be significant weather present at this time

METAR text: KMNH 010352Z AUTO 21004KT 10SM CLR 06/02 A2995 RMK AO2
Conditions at: KMNH (MONUMENT/ELBERT , CO, US) observed 0352 UTC 01 October 2014
Temperature: 6.0°C (43°F)
Dewpoint: 2.0°C (36°F) [RH = 75%]
Pressure (altimeter): 29.95 inches Hg (1014.3 mb)
Winds: from the SSW (210 degrees) at 5 MPH (4 knots; 2.1 m/s)
Visibility: 10 or more miles (16+ km)
Ceiling: at least 12,000 feet AGL
Clouds: sky clear below 12,000 feet AGL
Weather: automated observation with no human augmentation;
there may or may not be significant weather present at this time

METAR text: KMNH 010332Z AUTO 00000KT 10SM CLR 08/02 A2995 RMK AO2
Conditions at: KMNH (MONUMENT/ELBERT , CO, US) observed 0332 UTC 01 October 2014
Temperature: 8.0°C (46°F)
Dewpoint: 2.0°C (36°F) [RH = 66%]
Pressure (altimeter): 29.95 inches Hg (1014.3 mb)
Winds: calm
Visibility: 10 or more miles (16+ km)
Ceiling: at least 12,000 feet AGL
Clouds: sky clear below 12,000 feet AGL
Weather: automated observation with no human augmentation;
there may or may not be significant weather present at this time

METAR text: KMNH 010312Z AUTO 00000KT 10SM SCT120 07/03 A2995 RMK AO2
Conditions at: KMNH (MONUMENT/ELBERT , CO, US) observed 0312 UTC 01 October 2014
Temperature: 7.0°C (45°F)
Dewpoint: 3.0°C (37°F) [RH = 76%]
Pressure (altimeter): 29.95 inches Hg (1014.3 mb)
Winds: calm
Visibility: 10 or more miles (16+ km)
Ceiling: at least 12,000 feet AGL
Clouds: scattered clouds at 12000 feet AGL
Weather: automated observation with no human augmentation;
there may or may not be significant weather present at this time

METAR text: KMNH 010252Z AUTO 32004KT 10SM BKN100 BKN120 09/02 A2995 RMK AO2
Conditions at: KMNH (MONUMENT/ELBERT , CO, US) observed 0252 UTC 01 October 2014
Temperature: 9.0°C (48°F)
Dewpoint: 2.0°C (36°F) [RH = 61%]
Pressure (altimeter): 29.95 inches Hg (1014.3 mb)
Winds: from the NW (320 degrees) at 5 MPH (4 knots; 2.1 m/s)
Visibility: 10 or more miles (16+ km)
Ceiling: 10000 feet AGL
Clouds: broken clouds at 10000 feet AGL
broken clouds at 12000 feet AGL
Weather: automated observation with no human augmentation;
there may or may not be significant weather present at this time

METAR text: KMNH 010232Z AUTO 24004KT 10SM OVC100 09/05 A2995 RMK AO2
Conditions at: KMNH (MONUMENT/ELBERT , CO, US) observed 0232 UTC 01 October 2014
Temperature: 9.0°C (48°F)
Dewpoint: 5.0°C (41°F) [RH = 76%]
Pressure (altimeter): 29.95 inches Hg (1014.3 mb)
Winds: from the WSW (240 degrees) at 5 MPH (4 knots; 2.1 m/s)
Visibility: 10 or more miles (16+ km)
Ceiling: 10000 feet AGL
Clouds: overcast cloud deck at 10000 feet AGL
Weather: automated observation with no human augmentation;
there may or may not be significant weather present at this time

METAR text: KMNH 010212Z AUTO 00000KT 10SM OVC100 09/05 A2995 RMK AO2 LTG DSNT W
Conditions at: KMNH (MONUMENT/ELBERT , CO, US) observed 0212 UTC 01 October 2014
Temperature: 9.0°C (48°F)
Dewpoint: 5.0°C (41°F) [RH = 76%]
Pressure (altimeter): 29.95 inches Hg (1014.3 mb)
Winds: calm
Visibility: 10 or more miles (16+ km)
Ceiling: 10000 feet AGL
Clouds: overcast cloud deck at 10000 feet AGL
Weather: automated observation with no human augmentation;
there may or may not be significant weather present at this time

METAR text: KMNH 010152Z AUTO 00000KT 10SM BKN110 10/02 A2994 RMK AO2
Conditions at: KMNH (MONUMENT/ELBERT , CO, US) observed 0152 UTC 01 October 2014
Temperature: 10.0°C (50°F)
Dewpoint: 2.0°C (36°F) [RH = 57%]
Pressure (altimeter): 29.94 inches Hg (1014.0 mb)
Winds: calm
Visibility: 10 or more miles (16+ km)
Ceiling: 11000 feet AGL
Clouds: broken clouds at 11000 feet AGL
Weather: automated observation with no human augmentation;
there may or may not be significant weather present at this time

METAR text: KMNH 010133Z AUTO 12004KT 10SM SCT100 BKN120 10/04 A2993 RMK AO2
Conditions at: KMNH (MONUMENT/ELBERT , CO, US) observed 0133 UTC 01 October 2014
Temperature: 10.0°C (50°F)
Dewpoint: 4.0°C (39°F) [RH = 66%]
Pressure (altimeter): 29.93 inches Hg (1013.6 mb)
Winds: from the ESE (120 degrees) at 5 MPH (4 knots; 2.1 m/s)
Visibility: 10 or more miles (16+ km)
Ceiling: 12000 feet AGL
Clouds: scattered clouds at 10000 feet AGL
broken clouds at 12000 feet AGL
Weather: automated observation with no human augmentation;
there may or may not be significant weather present at this time

METAR text: KMNH 010113Z AUTO 10003KT 10SM SCT090 SCT120 11/04 A2993 RMK AO2
Conditions at: KMNH (MONUMENT/ELBERT , CO, US) observed 0113 UTC 01 October 2014
Temperature: 11.0°C (52°F)
Dewpoint: 4.0°C (39°F) [RH = 62%]
Pressure (altimeter): 29.93 inches Hg (1013.6 mb)
Winds: from the E (100 degrees) at 3 MPH (3 knots; 1.6 m/s)
Visibility: 10 or more miles (16+ km)
Ceiling: at least 12,000 feet AGL
Clouds: scattered clouds at 9000 feet AGL
scattered clouds at 12000 feet AGL
Weather: automated observation with no human augmentation;
there may or may not be significant weather present at this time

METAR text: KMNH 010052Z AUTO 08003KT 10SM SCT090 BKN120 11/02 A2992 RMK AO2
Conditions at: KMNH (MONUMENT/ELBERT , CO, US) observed 0052 UTC 01 October 2014
Temperature: 11.0°C (52°F)
Dewpoint: 2.0°C (36°F) [RH = 54%]
Pressure (altimeter): 29.92 inches Hg (1013.3 mb)
Winds: from the E (80 degrees) at 3 MPH (3 knots; 1.6 m/s)
Visibility: 10 or more miles (16+ km)
Ceiling: 12000 feet AGL
Clouds: scattered clouds at 9000 feet AGL
broken clouds at 12000 feet AGL
Weather: automated observation with no human augmentation;
there may or may not be significant weather present at this time

METAR text: KMNH 010032Z AUTO 00000KT 10SM SCT120 11/02 A2991 RMK AO2
Conditions at: KMNH (MONUMENT/ELBERT , CO, US) observed 0032 UTC 01 October 2014
Temperature: 11.0°C (52°F)
Dewpoint: 2.0°C (36°F) [RH = 54%]
Pressure (altimeter): 29.91 inches Hg (1013.0 mb)
Winds: calm
Visibility: 10 or more miles (16+ km)
Ceiling: at least 12,000 feet AGL
Clouds: scattered clouds at 12000 feet AGL
Weather: automated observation with no human augmentation;
there may or may not be significant weather present at this time

METAR text: KMNH 010013Z AUTO 00000KT 10SM SCT090 12/02 A2991 RMK AO2 LTG DSNT W
Conditions at: KMNH (MONUMENT/ELBERT , CO, US) observed 0013 UTC 01 October 2014
Temperature: 12.0°C (54°F)
Dewpoint: 2.0°C (36°F) [RH = 50%]
Pressure (altimeter): 29.91 inches Hg (1013.0 mb)
Winds: calm
Visibility: 10 or more miles (16+ km)
Ceiling: at least 12,000 feet AGL
Clouds: scattered clouds at 9000 feet AGL
Weather: automated observation with no human augmentation;
there may or may not be significant weather present at this time

METAR text: KMNH 302352Z AUTO 07003KT 10SM SCT090 12/01 A2991 RMK AO2 LTG DSNT W
Conditions at: KMNH (MONUMENT/ELBERT , CO, US) observed 2352 UTC 30 September 2014
Temperature: 12.0°C (54°F)
Dewpoint: 1.0°C (34°F) [RH = 47%]
Pressure (altimeter): 29.91 inches Hg (1013.0 mb)
Winds: from the ENE (70 degrees) at 3 MPH (3 knots; 1.6 m/s)
Visibility: 10 or more miles (16+ km)
Ceiling: at least 12,000 feet AGL
Clouds: scattered clouds at 9000 feet AGL
Weather: automated observation with no human augmentation;
there may or may not be significant weather present at this time

METAR text: KMNH 302332Z AUTO 04003KT 10SM SCT090 12/01 A2991 RMK AO2
Conditions at: KMNH (MONUMENT/ELBERT , CO, US) observed 2332 UTC 30 September 2014
Temperature: 12.0°C (54°F)
Dewpoint: 1.0°C (34°F) [RH = 47%]
Pressure (altimeter): 29.91 inches Hg (1013.0 mb)
Winds: from the NE (40 degrees) at 3 MPH (3 knots; 1.6 m/s)
Visibility: 10 or more miles (16+ km)
Ceiling: at least 12,000 feet AGL
Clouds: scattered clouds at 9000 feet AGL
Weather: automated observation with no human augmentation;
there may or may not be significant weather present at this time

METAR text: KMNH 302313Z AUTO 02005KT 10SM SCT090 13/00 A2991 RMK AO2
Conditions at: KMNH (MONUMENT/ELBERT , CO, US) observed 2313 UTC 30 September 2014
Temperature: 13.0°C (55°F)
Dewpoint: 0.0°C (32°F) [RH = 41%]
Pressure (altimeter): 29.91 inches Hg (1013.0 mb)
Winds: from the NNE (20 degrees) at 6 MPH (5 knots; 2.6 m/s)
Visibility: 10 or more miles (16+ km)
Ceiling: at least 12,000 feet AGL
Clouds: scattered clouds at 9000 feet AGL
Weather: automated observation with no human augmentation;
there may or may not be significant weather present at this time

METAR text: KMNH 302253Z AUTO 02006KT 10SM BKN090 13/00 A2991 RMK AO2
Conditions at: KMNH (MONUMENT/ELBERT , CO, US) observed 2253 UTC 30 September 2014
Temperature: 13.0°C (55°F)
Dewpoint: 0.0°C (32°F) [RH = 41%]
Pressure (altimeter): 29.91 inches Hg (1013.0 mb)
Winds: from the NNE (20 degrees) at 7 MPH (6 knots; 3.1 m/s)
Visibility: 10 or more miles (16+ km)
Ceiling: 9000 feet AGL
Clouds: broken clouds at 9000 feet AGL
Weather: automated observation with no human augmentation;
there may or may not be significant weather present at this time

METAR text: KMNH 302232Z AUTO 36005KT 10SM OVC080 13/00 A2991 RMK AO2
Conditions at: KMNH (MONUMENT/ELBERT , CO, US) observed 2232 UTC 30 September 2014
Temperature: 13.0°C (55°F)
Dewpoint: 0.0°C (32°F) [RH = 41%]
Pressure (altimeter): 29.91 inches Hg (1013.0 mb)
Winds: from the N (360 degrees) at 6 MPH (5 knots; 2.6 m/s)
Visibility: 10 or more miles (16+ km)
Ceiling: 8000 feet AGL
Clouds: overcast cloud deck at 8000 feet AGL
Weather: automated observation with no human augmentation;
there may or may not be significant weather present at this time

METAR text: KMNH 302213Z AUTO 35008KT 10SM OVC080 13/00 A2990 RMK AO2
Conditions at: KMNH (MONUMENT/ELBERT , CO, US) observed 2213 UTC 30 September 2014
Temperature: 13.0°C (55°F)
Dewpoint: 0.0°C (32°F) [RH = 41%]
Pressure (altimeter): 29.90 inches Hg (1012.6 mb)
Winds: from the N (350 degrees) at 9 MPH (8 knots; 4.2 m/s)
Visibility: 10 or more miles (16+ km)
Ceiling: 8000 feet AGL
Clouds: overcast cloud deck at 8000 feet AGL
Weather: automated observation with no human augmentation;
there may or may not be significant weather present at this time

METAR text: KMNH 302153Z AUTO 34008KT 10SM OVC080 15/M01 A2989 RMK AO2
Conditions at: KMNH (MONUMENT/ELBERT , CO, US) observed 2153 UTC 30 September 2014
Temperature: 15.0°C (59°F)
Dewpoint: -1.0°C (30°F) [RH = 33%]
Pressure (altimeter): 29.89 inches Hg (1012.3 mb)
Winds: from the NNW (340 degrees) at 9 MPH (8 knots; 4.2 m/s)
Visibility: 10 or more miles (16+ km)
Ceiling: 8000 feet AGL
Clouds: overcast cloud deck at 8000 feet AGL
Weather: automated observation with no human augmentation;
there may or may not be significant weather present at this time

METAR text: KMNH 302133Z AUTO 32007KT 10SM OVC080 15/M01 A2989 RMK AO2
Conditions at: KMNH (MONUMENT/ELBERT , CO, US) observed 2133 UTC 30 September 2014
Temperature: 15.0°C (59°F)
Dewpoint: -1.0°C (30°F) [RH = 33%]
Pressure (altimeter): 29.89 inches Hg (1012.3 mb)
Winds: from the NW (320 degrees) at 8 MPH (7 knots; 3.6 m/s)
Visibility: 10 or more miles (16+ km)
Ceiling: 8000 feet AGL
Clouds: overcast cloud deck at 8000 feet AGL
Weather: automated observation with no human augmentation;
there may or may not be significant weather present at this time

METAR text: KMNH 302113Z AUTO 34008KT 10SM BKN080 16/M01 A2989 RMK AO2
Conditions at: KMNH (MONUMENT/ELBERT , CO, US) observed 2113 UTC 30 September 2014
Temperature: 16.0°C (61°F)
Dewpoint: -1.0°C (30°F) [RH = 31%]
Pressure (altimeter): 29.89 inches Hg (1012.3 mb)
Winds: from the NNW (340 degrees) at 9 MPH (8 knots; 4.2 m/s)
Visibility: 10 or more miles (16+ km)
Ceiling: 8000 feet AGL
Clouds: broken clouds at 8000 feet AGL
Weather: automated observation with no human augmentation;
there may or may not be significant weather present at this time

METAR text: KMNH 302053Z AUTO 35003KT 10SM CLR 16/M01 A2989 RMK AO2
Conditions at: KMNH (MONUMENT/ELBERT , CO, US) observed 2053 UTC 30 September 2014
Temperature: 16.0°C (61°F)
Dewpoint: -1.0°C (30°F) [RH = 31%]
Pressure (altimeter): 29.89 inches Hg (1012.3 mb)
Winds: from the N (350 degrees) at 3 MPH (3 knots; 1.6 m/s)
Visibility: 10 or more miles (16+ km)
Ceiling: at least 12,000 feet AGL
Clouds: sky clear below 12,000 feet AGL
Weather: automated observation with no human augmentation;
there may or may not be significant weather present at this time

METAR text: KMNH 302033Z AUTO 31009G14KT 10SM CLR 16/M01 A2990 RMK AO2
Conditions at: KMNH (MONUMENT/ELBERT , CO, US) observed 2033 UTC 30 September 2014
Temperature: 16.0°C (61°F)
Dewpoint: -1.0°C (30°F) [RH = 31%]
Pressure (altimeter): 29.90 inches Hg (1012.6 mb)
Winds: from the NW (310 degrees) at 10 MPH (9 knots; 4.7 m/sgusting to 16 MPH (14 knots; 7.3 m/s)
Visibility: 10 or more miles (16+ km)
Ceiling: at least 12,000 feet AGL
Clouds: sky clear below 12,000 feet AGL
Weather: automated observation with no human augmentation;
there may or may not be significant weather present at this time

METAR text: KMNH 302013Z AUTO 31014G22KT 260V330 10SM CLR 16/M02 A2991 RMK AO2
Conditions at: KMNH (MONUMENT/ELBERT , CO, US) observed 2013 UTC 30 September 2014
Temperature: 16.0°C (61°F)
Dewpoint: -2.0°C (28°F) [RH = 29%]
Pressure (altimeter): 29.91 inches Hg (1013.0 mb)
Winds: from the NW (310 degrees) at 16 MPH (14 knots; 7.3 m/sgusting to 25 MPH (22 knots; 11.4 m/s)
Visibility: 10 or more miles (16+ km)
Ceiling: at least 12,000 feet AGL
Clouds: sky clear below 12,000 feet AGL
Weather: automated observation with no human augmentation;
there may or may not be significant weather present at this time

METAR text: KMNH 301953Z AUTO 30017G22KT 10SM SCT070 16/M01 A2991 RMK AO2
Conditions at: KMNH (MONUMENT/ELBERT , CO, US) observed 1953 UTC 30 September 2014
Temperature: 16.0°C (61°F)
Dewpoint: -1.0°C (30°F) [RH = 31%]
Pressure (altimeter): 29.91 inches Hg (1013.0 mb)
Winds: from the WNW (300 degrees) at 20 MPH (17 knots; 8.8 m/sgusting to 25 MPH (22 knots; 11.4 m/s)
Visibility: 10 or more miles (16+ km)
Ceiling: at least 12,000 feet AGL
Clouds: scattered clouds at 7000 feet AGL
Weather: automated observation with no human augmentation;
there may or may not be significant weather present at this time

METAR text: KMNH 301933Z AUTO 27015G18KT 10SM SCT070 16/M02 A2991 RMK AO2
Conditions at: KMNH (MONUMENT/ELBERT , CO, US) observed 1933 UTC 30 September 2014
Temperature: 16.0°C (61°F)
Dewpoint: -2.0°C (28°F) [RH = 29%]
Pressure (altimeter): 29.91 inches Hg (1013.0 mb)
Winds: from the W (270 degrees) at 17 MPH (15 knots; 7.8 m/sgusting to 21 MPH (18 knots; 9.4 m/s)
Visibility: 10 or more miles (16+ km)
Ceiling: at least 12,000 feet AGL
Clouds: scattered clouds at 7000 feet AGL
Weather: automated observation with no human augmentation;
there may or may not be significant weather present at this time

METAR text: KMNH 301913Z AUTO 28015G19KT 10SM CLR 16/M01 A2992 RMK AO2
Conditions at: KMNH (MONUMENT/ELBERT , CO, US) observed 1913 UTC 30 September 2014
Temperature: 16.0°C (61°F)
Dewpoint: -1.0°C (30°F) [RH = 31%]
Pressure (altimeter): 29.92 inches Hg (1013.3 mb)
Winds: from the W (280 degrees) at 17 MPH (15 knots; 7.8 m/sgusting to 22 MPH (19 knots; 9.9 m/s)
Visibility: 10 or more miles (16+ km)
Ceiling: at least 12,000 feet AGL
Clouds: sky clear below 12,000 feet AGL
Weather: automated observation with no human augmentation;
there may or may not be significant weather present at this time

METAR text: KMNH 301853Z AUTO 26014G22KT 10SM SCT070 16/M01 A2992 RMK AO2
Conditions at: KMNH (MONUMENT/ELBERT , CO, US) observed 1853 UTC 30 September 2014
Temperature: 16.0°C (61°F)
Dewpoint: -1.0°C (30°F) [RH = 31%]
Pressure (altimeter): 29.92 inches Hg (1013.3 mb)
Winds: from the W (260 degrees) at 16 MPH (14 knots; 7.3 m/sgusting to 25 MPH (22 knots; 11.4 m/s)
Visibility: 10 or more miles (16+ km)
Ceiling: at least 12,000 feet AGL
Clouds: scattered clouds at 7000 feet AGL
Weather: automated observation with no human augmentation;
there may or may not be significant weather present at this time

METAR text: KMNH 301833Z AUTO 30015G19KT 10SM CLR 16/M01 A2992 RMK AO2
Conditions at: KMNH (MONUMENT/ELBERT , CO, US) observed 1833 UTC 30 September 2014
Temperature: 16.0°C (61°F)
Dewpoint: -1.0°C (30°F) [RH = 31%]
Pressure (altimeter): 29.92 inches Hg (1013.3 mb)
Winds: from the WNW (300 degrees) at 17 MPH (15 knots; 7.8 m/sgusting to 22 MPH (19 knots; 9.9 m/s)
Visibility: 10 or more miles (16+ km)
Ceiling: at least 12,000 feet AGL
Clouds: sky clear below 12,000 feet AGL
Weather: automated observation with no human augmentation;
there may or may not be significant weather present at this time

METAR text: KMNH 301812Z AUTO 28010G15KT 10SM CLR 15/M01 A2993 RMK AO2
Conditions at: KMNH (MONUMENT/ELBERT , CO, US) observed 1812 UTC 30 September 2014
Temperature: 15.0°C (59°F)
Dewpoint: -1.0°C (30°F) [RH = 33%]
Pressure (altimeter): 29.93 inches Hg (1013.6 mb)
Winds: from the W (280 degrees) at 12 MPH (10 knots; 5.2 m/sgusting to 17 MPH (15 knots; 7.8 m/s)
Visibility: 10 or more miles (16+ km)
Ceiling: at least 12,000 feet AGL
Clouds: sky clear below 12,000 feet AGL
Weather: automated observation with no human augmentation;
there may or may not be significant weather present at this time

METAR text: KMNH 301752Z AUTO 28009G16KT 10SM CLR 14/M02 A2993 RMK AO2
Conditions at: KMNH (MONUMENT/ELBERT , CO, US) observed 1752 UTC 30 September 2014
Temperature: 14.0°C (57°F)
Dewpoint: -2.0°C (28°F) [RH = 33%]
Pressure (altimeter): 29.93 inches Hg (1013.6 mb)
Winds: from the W (280 degrees) at 10 MPH (9 knots; 4.7 m/sgusting to 18 MPH (16 knots; 8.3 m/s)
Visibility: 10 or more miles (16+ km)
Ceiling: at least 12,000 feet AGL
Clouds: sky clear below 12,000 feet AGL
Weather: automated observation with no human augmentation;
there may or may not be significant weather present at this time

METAR text: KMNH 301732Z AUTO 27012KT 250V310 10SM CLR 15/M02 A2993 RMK AO2
Conditions at: KMNH (MONUMENT/ELBERT , CO, US) observed 1732 UTC 30 September 2014
Temperature: 15.0°C (59°F)
Dewpoint: -2.0°C (28°F) [RH = 31%]
Pressure (altimeter): 29.93 inches Hg (1013.6 mb)
Winds: from the W (270 degrees) at 14 MPH (12 knots; 6.2 m/s)
Visibility: 10 or more miles (16+ km)
Ceiling: at least 12,000 feet AGL
Clouds: sky clear below 12,000 feet AGL
Weather: automated observation with no human augmentation;
there may or may not be significant weather present at this time

METAR text: KMNH 301713Z AUTO 26012KT 10SM CLR 15/M02 A2994 RMK AO2
Conditions at: KMNH (MONUMENT/ELBERT , CO, US) observed 1713 UTC 30 September 2014
Temperature: 15.0°C (59°F)
Dewpoint: -2.0°C (28°F) [RH = 31%]
Pressure (altimeter): 29.94 inches Hg (1014.0 mb)
Winds: from the W (260 degrees) at 14 MPH (12 knots; 6.2 m/s)
Visibility: 10 or more miles (16+ km)
Ceiling: at least 12,000 feet AGL
Clouds: sky clear below 12,000 feet AGL
Weather: automated observation with no human augmentation;
there may or may not be significant weather present at this time

METAR text: KMNH 301652Z AUTO 26011KT 10SM CLR 14/M02 A2995 RMK AO2
Conditions at: KMNH (MONUMENT/ELBERT , CO, US) observed 1652 UTC 30 September 2014
Temperature: 14.0°C (57°F)
Dewpoint: -2.0°C (28°F) [RH = 33%]
Pressure (altimeter): 29.95 inches Hg (1014.3 mb)
Winds: from the W (260 degrees) at 13 MPH (11 knots; 5.7 m/s)
Visibility: 10 or more miles (16+ km)
Ceiling: at least 12,000 feet AGL
Clouds: sky clear below 12,000 feet AGL
Weather: automated observation with no human augmentation;
there may or may not be significant weather present at this time

METAR text: KMNH 301633Z AUTO 29010KT 10SM CLR 14/M02 A2994 RMK AO2
Conditions at: KMNH (MONUMENT/ELBERT , CO, US) observed 1633 UTC 30 September 2014
Temperature: 14.0°C (57°F)
Dewpoint: -2.0°C (28°F) [RH = 33%]
Pressure (altimeter): 29.94 inches Hg (1014.0 mb)
Winds: from the WNW (290 degrees) at 12 MPH (10 knots; 5.2 m/s)
Visibility: 10 or more miles (16+ km)
Ceiling: at least 12,000 feet AGL
Clouds: sky clear below 12,000 feet AGL
Weather: automated observation with no human augmentation;
there may or may not be significant weather present at this time

METAR text: KMNH 301613Z AUTO 26012KT 10SM CLR 13/M02 A2994 RMK AO2
Conditions at: KMNH (MONUMENT/ELBERT , CO, US) observed 1613 UTC 30 September 2014
Temperature: 13.0°C (55°F)
Dewpoint: -2.0°C (28°F) [RH = 35%]
Pressure (altimeter): 29.94 inches Hg (1014.0 mb)
Winds: from the W (260 degrees) at 14 MPH (12 knots; 6.2 m/s)
Visibility: 10 or more miles (16+ km)
Ceiling: at least 12,000 feet AGL
Clouds: sky clear below 12,000 feet AGL
Weather: automated observation with no human augmentation;
there may or may not be significant weather present at this time

METAR text: KMNH 301552Z AUTO 27012KT 10SM CLR 13/M02 A2994 RMK AO2
Conditions at: KMNH (MONUMENT/ELBERT , CO, US) observed 1552 UTC 30 September 2014
Temperature: 13.0°C (55°F)
Dewpoint: -2.0°C (28°F) [RH = 35%]
Pressure (altimeter): 29.94 inches Hg (1014.0 mb)
Winds: from the W (270 degrees) at 14 MPH (12 knots; 6.2 m/s)
Visibility: 10 or more miles (16+ km)
Ceiling: at least 12,000 feet AGL
Clouds: sky clear below 12,000 feet AGL
Weather: automated observation with no human augmentation;
there may or may not be significant weather present at this time

METAR text: KMNH 301533Z AUTO 24014KT 10SM CLR 13/M02 A2994 RMK AO2
Conditions at: KMNH (MONUMENT/ELBERT , CO, US) observed 1533 UTC 30 September 2014
Temperature: 13.0°C (55°F)
Dewpoint: -2.0°C (28°F) [RH = 35%]
Pressure (altimeter): 29.94 inches Hg (1014.0 mb)
Winds: from the WSW (240 degrees) at 16 MPH (14 knots; 7.3 m/s)
Visibility: 10 or more miles (16+ km)
Ceiling: at least 12,000 feet AGL
Clouds: sky clear below 12,000 feet AGL
Weather: automated observation with no human augmentation;
there may or may not be significant weather present at this time

METAR text: KMNH 301512Z AUTO 24010KT 10SM CLR 12/M01 A2993 RMK AO2
Conditions at: KMNH (MONUMENT/ELBERT , CO, US) observed 1512 UTC 30 September 2014
Temperature: 12.0°C (54°F)
Dewpoint: -1.0°C (30°F) [RH = 40%]
Pressure (altimeter): 29.93 inches Hg (1013.6 mb)
Winds: from the WSW (240 degrees) at 12 MPH (10 knots; 5.2 m/s)
Visibility: 10 or more miles (16+ km)
Ceiling: at least 12,000 feet AGL
Clouds: sky clear below 12,000 feet AGL
Weather: automated observation with no human augmentation;
there may or may not be significant weather present at this time

METAR text: KMNH 301453Z AUTO 25010G15KT 10SM CLR 11/M01 A2993 RMK AO2
Conditions at: KMNH (MONUMENT/ELBERT , CO, US) observed 1453 UTC 30 September 2014
Temperature: 11.0°C (52°F)
Dewpoint: -1.0°C (30°F) [RH = 43%]
Pressure (altimeter): 29.93 inches Hg (1013.6 mb)
Winds: from the WSW (250 degrees) at 12 MPH (10 knots; 5.2 m/sgusting to 17 MPH (15 knots; 7.8 m/s)
Visibility: 10 or more miles (16+ km)
Ceiling: at least 12,000 feet AGL
Clouds: sky clear below 12,000 feet AGL
Weather: automated observation with no human augmentation;
there may or may not be significant weather present at this time

METAR text: KMNH 301433Z AUTO 24010G14KT 10SM CLR 10/00 A2992 RMK AO2
Conditions at: KMNH (MONUMENT/ELBERT , CO, US) observed 1433 UTC 30 September 2014
Temperature: 10.0°C (50°F)
Dewpoint: 0.0°C (32°F) [RH = 50%]
Pressure (altimeter): 29.92 inches Hg (1013.3 mb)
Winds: from the WSW (240 degrees) at 12 MPH (10 knots; 5.2 m/sgusting to 16 MPH (14 knots; 7.3 m/s)
Visibility: 10 or more miles (16+ km)
Ceiling: at least 12,000 feet AGL
Clouds: sky clear below 12,000 feet AGL
Weather: automated observation with no human augmentation;
there may or may not be significant weather present at this time

METAR text: KMNH 301413Z AUTO 24009KT 10SM CLR 08/00 A2992 RMK AO2
Conditions at: KMNH (MONUMENT/ELBERT , CO, US) observed 1413 UTC 30 September 2014
Temperature: 8.0°C (46°F)
Dewpoint: 0.0°C (32°F) [RH = 57%]
Pressure (altimeter): 29.92 inches Hg (1013.3 mb)
Winds: from the WSW (240 degrees) at 10 MPH (9 knots; 4.7 m/s)
Visibility: 10 or more miles (16+ km)
Ceiling: at least 12,000 feet AGL
Clouds: sky clear below 12,000 feet AGL
Weather: automated observation with no human augmentation;
there may or may not be significant weather present at this time

METAR text: KMNH 301353Z AUTO 24009KT 10SM CLR 07/00 A2992 RMK AO2
Conditions at: KMNH (MONUMENT/ELBERT , CO, US) observed 1353 UTC 30 September 2014
Temperature: 7.0°C (45°F)
Dewpoint: 0.0°C (32°F) [RH = 61%]
Pressure (altimeter): 29.92 inches Hg (1013.3 mb)
Winds: from the WSW (240 degrees) at 10 MPH (9 knots; 4.7 m/s)
Visibility: 10 or more miles (16+ km)
Ceiling: at least 12,000 feet AGL
Clouds: sky clear below 12,000 feet AGL
Weather: automated observation with no human augmentation;
there may or may not be significant weather present at this time

METAR text: KMNH 301333Z AUTO 24010KT 10SM CLR 07/M01 A2992 RMK AO2
Conditions at: KMNH (MONUMENT/ELBERT , CO, US) observed 1333 UTC 30 September 2014
Temperature: 7.0°C (45°F)
Dewpoint: -1.0°C (30°F) [RH = 57%]
Pressure (altimeter): 29.92 inches Hg (1013.3 mb)
Winds: from the WSW (240 degrees) at 12 MPH (10 knots; 5.2 m/s)
Visibility: 10 or more miles (16+ km)
Ceiling: at least 12,000 feet AGL
Clouds: sky clear below 12,000 feet AGL
Weather: automated observation with no human augmentation;
there may or may not be significant weather present at this time

METAR text: KMNH 301313Z AUTO 23010KT 10SM CLR 06/M01 A2992 RMK AO2
Conditions at: KMNH (MONUMENT/ELBERT , CO, US) observed 1313 UTC 30 September 2014
Temperature: 6.0°C (43°F)
Dewpoint: -1.0°C (30°F) [RH = 61%]
Pressure (altimeter): 29.92 inches Hg (1013.3 mb)
Winds: from the SW (230 degrees) at 12 MPH (10 knots; 5.2 m/s)
Visibility: 10 or more miles (16+ km)
Ceiling: at least 12,000 feet AGL
Clouds: sky clear below 12,000 feet AGL
Weather: automated observation with no human augmentation;
there may or may not be significant weather present at this time

METAR text: KMNH 301253Z AUTO 22008KT 10SM CLR 05/M01 A2991 RMK AO2
Conditions at: KMNH (MONUMENT/ELBERT , CO, US) observed 1253 UTC 30 September 2014
Temperature: 5.0°C (41°F)
Dewpoint: -1.0°C (30°F) [RH = 65%]
Pressure (altimeter): 29.91 inches Hg (1013.0 mb)
Winds: from the SW (220 degrees) at 9 MPH (8 knots; 4.2 m/s)
Visibility: 10 or more miles (16+ km)
Ceiling: at least 12,000 feet AGL
Clouds: sky clear below 12,000 feet AGL
Weather: automated observation with no human augmentation;
there may or may not be significant weather present at this time

METAR text: KMNH 301233Z AUTO 24009KT 10SM CLR 05/M01 A2991 RMK AO2
Conditions at: KMNH (MONUMENT/ELBERT , CO, US) observed 1233 UTC 30 September 2014
Temperature: 5.0°C (41°F)
Dewpoint: -1.0°C (30°F) [RH = 65%]
Pressure (altimeter): 29.91 inches Hg (1013.0 mb)
Winds: from the WSW (240 degrees) at 10 MPH (9 knots; 4.7 m/s)
Visibility: 10 or more miles (16+ km)
Ceiling: at least 12,000 feet AGL
Clouds: sky clear below 12,000 feet AGL
Weather: automated observation with no human augmentation;
there may or may not be significant weather present at this time

METAR text: KMNH 301213Z AUTO 23011KT 10SM CLR 05/M01 A2991 RMK AO2
Conditions at: KMNH (MONUMENT/ELBERT , CO, US) observed 1213 UTC 30 September 2014
Temperature: 5.0°C (41°F)
Dewpoint: -1.0°C (30°F) [RH = 65%]
Pressure (altimeter): 29.91 inches Hg (1013.0 mb)
Winds: from the SW (230 degrees) at 13 MPH (11 knots; 5.7 m/s)
Visibility: 10 or more miles (16+ km)
Ceiling: at least 12,000 feet AGL
Clouds: sky clear below 12,000 feet AGL
Weather: automated observation with no human augmentation;
there may or may not be significant weather present at this time

METAR text: KMNH 301153Z AUTO 23010KT 10SM CLR 06/M01 A2991 RMK AO2
Conditions at: KMNH (MONUMENT/ELBERT , CO, US) observed 1153 UTC 30 September 2014
Temperature: 6.0°C (43°F)
Dewpoint: -1.0°C (30°F) [RH = 61%]
Pressure (altimeter): 29.91 inches Hg (1013.0 mb)
Winds: from the SW (230 degrees) at 12 MPH (10 knots; 5.2 m/s)
Visibility: 10 or more miles (16+ km)
Ceiling: at least 12,000 feet AGL
Clouds: sky clear below 12,000 feet AGL
Weather: automated observation with no human augmentation;
there may or may not be significant weather present at this time

METAR text: KMNH 301133Z AUTO 23009KT 10SM CLR 04/M01 A2991 RMK AO2 LTG DSNT E
Conditions at: KMNH (MONUMENT/ELBERT , CO, US) observed 1133 UTC 30 September 2014
Temperature: 4.0°C (39°F)
Dewpoint: -1.0°C (30°F) [RH = 70%]
Pressure (altimeter): 29.91 inches Hg (1013.0 mb)
Winds: from the SW (230 degrees) at 10 MPH (9 knots; 4.7 m/s)
Visibility: 10 or more miles (16+ km)
Ceiling: at least 12,000 feet AGL
Clouds: sky clear below 12,000 feet AGL
Weather: automated observation with no human augmentation;
there may or may not be significant weather present at this time

METAR text: KMNH 301113Z AUTO 22007KT 10SM CLR 03/M01 A2991 RMK AO2
Conditions at: KMNH (MONUMENT/ELBERT , CO, US) observed 1113 UTC 30 September 2014
Temperature: 3.0°C (37°F)
Dewpoint: -1.0°C (30°F) [RH = 75%]
Pressure (altimeter): 29.91 inches Hg (1013.0 mb)
Winds: from the SW (220 degrees) at 8 MPH (7 knots; 3.6 m/s)
Visibility: 10 or more miles (16+ km)
Ceiling: at least 12,000 feet AGL
Clouds: sky clear below 12,000 feet AGL
Weather: automated observation with no human augmentation;
there may or may not be significant weather present at this time

METAR text: KMNH 301053Z AUTO 22007KT 10SM CLR 03/M01 A2991 RMK AO2
Conditions at: KMNH (MONUMENT/ELBERT , CO, US) observed 1053 UTC 30 September 2014
Temperature: 3.0°C (37°F)
Dewpoint: -1.0°C (30°F) [RH = 75%]
Pressure (altimeter): 29.91 inches Hg (1013.0 mb)
Winds: from the SW (220 degrees) at 8 MPH (7 knots; 3.6 m/s)
Visibility: 10 or more miles (16+ km)
Ceiling: at least 12,000 feet AGL
Clouds: sky clear below 12,000 feet AGL
Weather: automated observation with no human augmentation;
there may or may not be significant weather present at this time

METAR text: KMNH 301033Z AUTO 21006KT 10SM CLR 03/00 A2991 RMK AO2
Conditions at: KMNH (MONUMENT/ELBERT , CO, US) observed 1033 UTC 30 September 2014
Temperature: 3.0°C (37°F)
Dewpoint: 0.0°C (32°F) [RH = 81%]
Pressure (altimeter): 29.91 inches Hg (1013.0 mb)
Winds: from the SSW (210 degrees) at 7 MPH (6 knots; 3.1 m/s)
Visibility: 10 or more miles (16+ km)
Ceiling: at least 12,000 feet AGL
Clouds: sky clear below 12,000 feet AGL
Weather: automated observation with no human augmentation;
there may or may not be significant weather present at this time

METAR text: KMNH 301013Z AUTO 22010KT 10SM CLR 04/00 A2991 RMK AO2
Conditions at: KMNH (MONUMENT/ELBERT , CO, US) observed 1013 UTC 30 September 2014
Temperature: 4.0°C (39°F)
Dewpoint: 0.0°C (32°F) [RH = 75%]
Pressure (altimeter): 29.91 inches Hg (1013.0 mb)
Winds: from the SW (220 degrees) at 12 MPH (10 knots; 5.2 m/s)
Visibility: 10 or more miles (16+ km)
Ceiling: at least 12,000 feet AGL
Clouds: sky clear below 12,000 feet AGL
Weather: automated observation with no human augmentation;
there may or may not be significant weather present at this time

METAR text: KMNH 300953Z AUTO 20006KT 10SM CLR 02/00 A2991 RMK AO2
Conditions at: KMNH (MONUMENT/ELBERT , CO, US) observed 0953 UTC 30 September 2014
Temperature: 2.0°C (36°F)
Dewpoint: 0.0°C (32°F) [RH = 87%]
Pressure (altimeter): 29.91 inches Hg (1013.0 mb)
Winds: from the SSW (200 degrees) at 7 MPH (6 knots; 3.1 m/s)
Visibility: 10 or more miles (16+ km)
Ceiling: at least 12,000 feet AGL
Clouds: sky clear below 12,000 feet AGL
Weather: automated observation with no human augmentation;
there may or may not be significant weather present at this time

METAR text: KMNH 300933Z AUTO 20007KT 10SM CLR 03/00 A2991 RMK AO2
Conditions at: KMNH (MONUMENT/ELBERT , CO, US) observed 0933 UTC 30 September 2014
Temperature: 3.0°C (37°F)
Dewpoint: 0.0°C (32°F) [RH = 81%]
Pressure (altimeter): 29.91 inches Hg (1013.0 mb)
Winds: from the SSW (200 degrees) at 8 MPH (7 knots; 3.6 m/s)
Visibility: 10 or more miles (16+ km)
Ceiling: at least 12,000 feet AGL
Clouds: sky clear below 12,000 feet AGL
Weather: automated observation with no human augmentation;
there may or may not be significant weather present at this time

METAR text: KMNH 300913Z AUTO 21006KT 10SM CLR 05/00 A2991 RMK AO2
Conditions at: KMNH (MONUMENT/ELBERT , CO, US) observed 0913 UTC 30 September 2014
Temperature: 5.0°C (41°F)
Dewpoint: 0.0°C (32°F) [RH = 70%]
Pressure (altimeter): 29.91 inches Hg (1013.0 mb)
Winds: from the SSW (210 degrees) at 7 MPH (6 knots; 3.1 m/s)
Visibility: 10 or more miles (16+ km)
Ceiling: at least 12,000 feet AGL
Clouds: sky clear below 12,000 feet AGL
Weather: automated observation with no human augmentation;
there may or may not be significant weather present at this time

METAR text: KMNH 300852Z AUTO 23010KT 10SM CLR 05/00 A2991 RMK AO2
Conditions at: KMNH (MONUMENT/ELBERT , CO, US) observed 0852 UTC 30 September 2014
Temperature: 5.0°C (41°F)
Dewpoint: 0.0°C (32°F) [RH = 70%]
Pressure (altimeter): 29.91 inches Hg (1013.0 mb)
Winds: from the SW (230 degrees) at 12 MPH (10 knots; 5.2 m/s)
Visibility: 10 or more miles (16+ km)
Ceiling: at least 12,000 feet AGL
Clouds: sky clear below 12,000 feet AGL
Weather: automated observation with no human augmentation;
there may or may not be significant weather present at this time

METAR text: KMNH 300833Z AUTO 23009KT 10SM CLR 05/00 A2991 RMK AO2
Conditions at: KMNH (MONUMENT/ELBERT , CO, US) observed 0833 UTC 30 September 2014
Temperature: 5.0°C (41°F)
Dewpoint: 0.0°C (32°F) [RH = 70%]
Pressure (altimeter): 29.91 inches Hg (1013.0 mb)
Winds: from the SW (230 degrees) at 10 MPH (9 knots; 4.7 m/s)
Visibility: 10 or more miles (16+ km)
Ceiling: at least 12,000 feet AGL
Clouds: sky clear below 12,000 feet AGL
Weather: automated observation with no human augmentation;
there may or may not be significant weather present at this time

METAR text: KMNH 300812Z AUTO 22008KT 10SM CLR 03/01 A2992 RMK AO2
Conditions at: KMNH (MONUMENT/ELBERT , CO, US) observed 0812 UTC 30 September 2014
Temperature: 3.0°C (37°F)
Dewpoint: 1.0°C (34°F) [RH = 87%]
Pressure (altimeter): 29.92 inches Hg (1013.3 mb)
Winds: from the SW (220 degrees) at 9 MPH (8 knots; 4.2 m/s)
Visibility: 10 or more miles (16+ km)
Ceiling: at least 12,000 feet AGL
Clouds: sky clear below 12,000 feet AGL
Weather: automated observation with no human augmentation;
there may or may not be significant weather present at this time

METAR text: KMNH 300753Z AUTO 19003KT 10SM CLR 02/01 A2991 RMK AO2
Conditions at: KMNH (MONUMENT/ELBERT , CO, US) observed 0753 UTC 30 September 2014
Temperature: 2.0°C (36°F)
Dewpoint: 1.0°C (34°F) [RH = 93%]
Pressure (altimeter): 29.91 inches Hg (1013.0 mb)
Winds: from the S (190 degrees) at 3 MPH (3 knots; 1.6 m/s)
Visibility: 10 or more miles (16+ km)
Ceiling: at least 12,000 feet AGL
Clouds: sky clear below 12,000 feet AGL
Weather: automated observation with no human augmentation;
there may or may not be significant weather present at this time

METAR text: KMNH 300733Z AUTO 00000KT 10SM CLR 03/01 A2992 RMK AO2
Conditions at: KMNH (MONUMENT/ELBERT , CO, US) observed 0733 UTC 30 September 2014
Temperature: 3.0°C (37°F)
Dewpoint: 1.0°C (34°F) [RH = 87%]
Pressure (altimeter): 29.92 inches Hg (1013.3 mb)
Winds: calm
Visibility: 10 or more miles (16+ km)
Ceiling: at least 12,000 feet AGL
Clouds: sky clear below 12,000 feet AGL
Weather: automated observation with no human augmentation;
there may or may not be significant weather present at this time

METAR text: KMNH 300713Z AUTO 00000KT 10SM CLR 03/01 A2992 RMK AO2
Conditions at: KMNH (MONUMENT/ELBERT , CO, US) observed 0713 UTC 30 September 2014
Temperature: 3.0°C (37°F)
Dewpoint: 1.0°C (34°F) [RH = 87%]
Pressure (altimeter): 29.92 inches Hg (1013.3 mb)
Winds: calm
Visibility: 10 or more miles (16+ km)
Ceiling: at least 12,000 feet AGL
Clouds: sky clear below 12,000 feet AGL
Weather: automated observation with no human augmentation;
there may or may not be significant weather present at this time

METAR text: KMNH 300653Z AUTO 23005KT 10SM CLR 03/01 A2992 RMK AO2
Conditions at: KMNH (MONUMENT/ELBERT , CO, US) observed 0653 UTC 30 September 2014
Temperature: 3.0°C (37°F)
Dewpoint: 1.0°C (34°F) [RH = 87%]
Pressure (altimeter): 29.92 inches Hg (1013.3 mb)
Winds: from the SW (230 degrees) at 6 MPH (5 knots; 2.6 m/s)
Visibility: 10 or more miles (16+ km)
Ceiling: at least 12,000 feet AGL
Clouds: sky clear below 12,000 feet AGL
Weather: automated observation with no human augmentation;
there may or may not be significant weather present at this time

METAR text: KMNH 300633Z AUTO 14004KT 10SM CLR 03/02 A2993 RMK AO2
Conditions at: KMNH (MONUMENT/ELBERT , CO, US) observed 0633 UTC 30 September 2014
Temperature: 3.0°C (37°F)
Dewpoint: 2.0°C (36°F) [RH = 93%]
Pressure (altimeter): 29.93 inches Hg (1013.6 mb)
Winds: from the SE (140 degrees) at 5 MPH (4 knots; 2.1 m/s)
Visibility: 10 or more miles (16+ km)
Ceiling: at least 12,000 feet AGL
Clouds: sky clear below 12,000 feet AGL
Weather: automated observation with no human augmentation;
there may or may not be significant weather present at this time

METAR text: KMNH 300612Z AUTO 18005KT 10SM CLR 02/01 A2993 RMK AO2
Conditions at: KMNH (MONUMENT/ELBERT , CO, US) observed 0612 UTC 30 September 2014
Temperature: 2.0°C (36°F)
Dewpoint: 1.0°C (34°F) [RH = 93%]
Pressure (altimeter): 29.93 inches Hg (1013.6 mb)
Winds: from the S (180 degrees) at 6 MPH (5 knots; 2.6 m/s)
Visibility: 10 or more miles (16+ km)
Ceiling: at least 12,000 feet AGL
Clouds: sky clear below 12,000 feet AGL
Weather: automated observation with no human augmentation;
there may or may not be significant weather present at this time

METAR text: KMNH 300553Z AUTO 22004KT 10SM CLR 03/03 A2993 RMK AO2
Conditions at: KMNH (MONUMENT/ELBERT , CO, US) observed 0553 UTC 30 September 2014
Temperature: 3.0°C (37°F)
Dewpoint: 3.0°C (37°F) [RH = 100%]
Pressure (altimeter): 29.93 inches Hg (1013.6 mb)
Winds: from the SW (220 degrees) at 5 MPH (4 knots; 2.1 m/s)
Visibility: 10 or more miles (16+ km)
Ceiling: at least 12,000 feet AGL
Clouds: sky clear below 12,000 feet AGL
Weather: automated observation with no human augmentation;
there may or may not be significant weather present at this time

METAR text: KMNH 300532Z AUTO 00000KT 10SM CLR 04/03 A2994 RMK AO2
Conditions at: KMNH (MONUMENT/ELBERT , CO, US) observed 0532 UTC 30 September 2014
Temperature: 4.0°C (39°F)
Dewpoint: 3.0°C (37°F) [RH = 93%]
Pressure (altimeter): 29.94 inches Hg (1014.0 mb)
Winds: calm
Visibility: 10 or more miles (16+ km)
Ceiling: at least 12,000 feet AGL
Clouds: sky clear below 12,000 feet AGL
Weather: automated observation with no human augmentation;
there may or may not be significant weather present at this time

METAR text: KMNH 300513Z AUTO 05004KT 10SM SCT031 SCT040 BKN110 05/03 A2994 RMK AO2 LTG DSNT NE
Conditions at: KMNH (MONUMENT/ELBERT , CO, US) observed 0513 UTC 30 September 2014
Temperature: 5.0°C (41°F)
Dewpoint: 3.0°C (37°F) [RH = 87%]
Pressure (altimeter): 29.94 inches Hg (1014.0 mb)
Winds: from the NE (50 degrees) at 5 MPH (4 knots; 2.1 m/s)
Visibility: 10 or more miles (16+ km)
Ceiling: 11000 feet AGL
Clouds: scattered clouds at 3100 feet AGL
scattered clouds at 4000 feet AGL
broken clouds at 11000 feet AGL
Weather: automated observation with no human augmentation;
there may or may not be significant weather present at this time

METAR text: KMNH 300453Z AUTO 33008G18KT 10SM -RA BKN031 BKN041 OVC050 05/03 A2996 RMK AO2 LTG DSNT NE P0015
Conditions at: KMNH (MONUMENT/ELBERT , CO, US) observed 0453 UTC 30 September 2014
Temperature: 5.0°C (41°F)
Dewpoint: 3.0°C (37°F) [RH = 87%]
Pressure (altimeter): 29.96 inches Hg (1014.6 mb)
Winds: from the NNW (330 degrees) at 9 MPH (8 knots; 4.2 m/sgusting to 21 MPH (18 knots; 9.4 m/s)
Visibility: 10 or more miles (16+ km)
Ceiling: 3100 feet AGL
Clouds: broken clouds at 3100 feet AGL
broken clouds at 4100 feet AGL
overcast cloud deck at 5000 feet AGL
Weather: -RA  (light rain)

METAR text: KMNH 300433Z AUTO 36008KT 10SM -RA SCT016 BKN027 OVC034 05/03 A2997 RMK AO2 LTG DSNT NE P0014
Conditions at: KMNH (MONUMENT/ELBERT , CO, US) observed 0433 UTC 30 September 2014
Temperature: 5.0°C (41°F)
Dewpoint: 3.0°C (37°F) [RH = 87%]
Pressure (altimeter): 29.97 inches Hg (1015.0 mb)
Winds: from the N (360 degrees) at 9 MPH (8 knots; 4.2 m/s)
Visibility: 10 or more miles (16+ km)
Ceiling: 2700 feet AGL
Clouds: scattered clouds at 1600 feet AGL
broken clouds at 2700 feet AGL
overcast cloud deck at 3400 feet AGL
Weather: -RA  (light rain)

METAR text: KMNH 300413Z AUTO 35007KT 3SM +RA SCT015 OVC022 05/03 A2999 RMK AO2 LTG DSNT NE P0011
Conditions at: KMNH (MONUMENT/ELBERT , CO, US) observed 0413 UTC 30 September 2014
Temperature: 5.0°C (41°F)
Dewpoint: 3.0°C (37°F) [RH = 87%]
Pressure (altimeter): 29.99 inches Hg (1015.7 mb)
Winds: from the N (350 degrees) at 8 MPH (7 knots; 3.6 m/s)
Visibility: 3 miles (5 km)
Ceiling: 2200 feet AGL
Clouds: scattered clouds at 1500 feet AGL
overcast cloud deck at 2200 feet AGL
Weather: +RA  (heavy rain)

METAR text: KMNH 300353Z AUTO 28009KT 3SM VCTSRA BKN017 BKN023 OVC031 04/03 A3000 RMK AO2 LTG DSNT N AND NE P0013
Conditions at: KMNH (MONUMENT/ELBERT , CO, US) observed 0353 UTC 30 September 2014
Temperature: 4.0°C (39°F)
Dewpoint: 3.0°C (37°F) [RH = 93%]
Pressure (altimeter): 30.00 inches Hg (1016.0 mb)
Winds: from the W (280 degrees) at 10 MPH (9 knots; 4.7 m/s)
Visibility: 3 miles (5 km)
Ceiling: 1700 feet AGL
Clouds: broken clouds at 1700 feet AGL
broken clouds at 2300 feet AGL
overcast cloud deck at 3100 feet AGL
Weather: VCTSRA  ( could not decipher "VCTSRA")

METAR text: KMNH 300333Z AUTO 32015G31KT 4SM +VCTSRA SCT016 BKN031 OVC065 04/02 A2999 RMK AO2 LTG DSNT NW THRU NE P0004
Conditions at: KMNH (MONUMENT/ELBERT , CO, US) observed 0333 UTC 30 September 2014
Temperature: 4.0°C (39°F)
Dewpoint: 2.0°C (36°F) [RH = 87%]
Pressure (altimeter): 29.99 inches Hg (1015.7 mb)
Winds: from the NW (320 degrees) at 17 MPH (15 knots; 7.8 m/sgusting to 36 MPH (31 knots; 16.1 m/s)
Visibility: 4 miles (6 km)
Ceiling: 3100 feet AGL
Clouds: scattered clouds at 1600 feet AGL
broken clouds at 3100 feet AGL
overcast cloud deck at 6500 feet AGL
Weather: VCTS +RA  (thunderstorm in vicinity, heavy rain)

METAR text: KMNH 300313Z AUTO 27011G16KT 10SM TSDZ SCT047 SCT055 OVC065 06/05 A2993 RMK AO2 LTG DSNT N AND NW
Conditions at: KMNH (MONUMENT/ELBERT , CO, US) observed 0313 UTC 30 September 2014
Temperature: 6.0°C (43°F)
Dewpoint: 5.0°C (41°F) [RH = 93%]
Pressure (altimeter): 29.93 inches Hg (1013.6 mb)
Winds: from the W (270 degrees) at 13 MPH (11 knots; 5.7 m/sgusting to 18 MPH (16 knots; 8.3 m/s)
Visibility: 10 or more miles (16+ km)
Ceiling: 6500 feet AGL
Clouds: scattered clouds at 4700 feet AGL
scattered clouds at 5500 feet AGL
overcast cloud deck at 6500 feet AGL
Weather: TSDZ  ( could not decipher "TSDZ")

METAR text: KMNH 300253Z AUTO 23012G15KT 10SM DZ SCT050 OVC065 07/04 A2991 RMK AO2 LTG DSNT N AND NW
Conditions at: KMNH (MONUMENT/ELBERT , CO, US) observed 0253 UTC 30 September 2014
Temperature: 7.0°C (45°F)
Dewpoint: 4.0°C (39°F) [RH = 81%]
Pressure (altimeter): 29.91 inches Hg (1013.0 mb)
Winds: from the SW (230 degrees) at 14 MPH (12 knots; 6.2 m/sgusting to 17 MPH (15 knots; 7.8 m/s)
Visibility: 10 or more miles (16+ km)
Ceiling: 6500 feet AGL
Clouds: scattered clouds at 5000 feet AGL
overcast cloud deck at 6500 feet AGL
Weather: DZ  (drizzle)

METAR text: KMNH 300233Z AUTO 21006KT 10SM SCT055 OVC065 06/05 A2991 RMK AO2 LTG DSNT W
Conditions at: KMNH (MONUMENT/ELBERT , CO, US) observed 0233 UTC 30 September 2014
Temperature: 6.0°C (43°F)
Dewpoint: 5.0°C (41°F) [RH = 93%]
Pressure (altimeter): 29.91 inches Hg (1013.0 mb)
Winds: from the SSW (210 degrees) at 7 MPH (6 knots; 3.1 m/s)
Visibility: 10 or more miles (16+ km)
Ceiling: 6500 feet AGL
Clouds: scattered clouds at 5500 feet AGL
overcast cloud deck at 6500 feet AGL
Weather: automated observation with no human augmentation;
there may or may not be significant weather present at this time

METAR text: KMNH 300213Z AUTO 20005KT 10SM SCT055 BKN065 06/05 A2991 RMK AO2
Conditions at: KMNH (MONUMENT/ELBERT , CO, US) observed 0213 UTC 30 September 2014
Temperature: 6.0°C (43°F)
Dewpoint: 5.0°C (41°F) [RH = 93%]
Pressure (altimeter): 29.91 inches Hg (1013.0 mb)
Winds: from the SSW (200 degrees) at 6 MPH (5 knots; 2.6 m/s)
Visibility: 10 or more miles (16+ km)
Ceiling: 6500 feet AGL
Clouds: scattered clouds at 5500 feet AGL
broken clouds at 6500 feet AGL
Weather: automated observation with no human augmentation;
there may or may not be significant weather present at this time